Terminal Aerodrome Forecast
Issued by NWS

Home | Current Version | Previous Version | Text Only | Print | Product List | Glossary On
Versions: 1 2 3 4 5 6 7 8 9 10 11 12 13 14 15 16 17 18 19 20 21 22 23 24 25 26 27
000
FTUS41 KBOX 191744
TAFHYA
TAF
KHYA 191744Z 1918/2018 04012KT P6SM BKN040
     FM192300 09008KT P6SM SCT050
     FM200300 15004KT P6SM FEW250
     FM200900 00000KT P6SM FEW250
     FM201300 19006KT P6SM FEW250
     FM201600 19011KT P6SM FEW250=

USA.gov is the U.S. government's official web portal to all federal, state and local government web resources and services.